Terminal Aerodrome Forecast
Issued by NWS

Home | Current Version | Previous Version | Text Only | Print | Product List | Glossary Off
Versions: 1 2 3 4 5 6 7 8 9 10 11 12 13 14 15 16 17 18 19 20 21

000
FTUS43 KTOP 012329
TAFFOE
TAF
KFOE 012329Z 0200/0224 05008KT P6SM SCT050
     FM020400 05008KT P6SM BKN023
     FM020700 02006KT 5SM BR BKN008
     FM021700 03010KT P6SM VCTS FEW008 BKN018CB=

USA.gov is the U.S. government's official web portal to all federal, state and local government web resources and services.